Time;durP1;ratioP1;P1;durP2;ratioP2;P2;SDS_P1;SDS_P2;PMS_P1;PMS_P2;Temp;Humidity;BMP_temperature;BMP_pressure;BME280_temperature;BME280_humidity;BME280_pressure;Samples;Min_cycle;Max_cycle;Signal;HPM_P1;HPM_P2
2023/07/05 00:00:58;;;;;;;;;;;;;;;24.69;58.93;99515.75;3165094;28;19920;-70
2023/07/05 00:02:29;;;;;;;;;;;;;;;24.64;58.72;99512.78;3165200;28;19920;-70
2023/07/05 00:04:02;;;;;;;;;;;;;;;24.62;59.01;99517.41;3171682;28;19919;-70
2023/07/05 00:05:34;;;;;;;;;;;;;;;24.60;58.88;99514.09;3171227;28;19931;-69
2023/07/05 00:07:05;;;;;;;;;;;;;;;24.57;59.13;99522.41;3170617;28;20060;-70
2023/07/05 00:08:37;;;;;;;;;;;;;;;24.51;59.84;99523.06;3171677;28;19923;-70
2023/07/05 00:10:08;;;;;;;;;;;;;;;24.45;59.64;99521.91;3171134;28;20324;-70
2023/07/05 00:11:40;;;;;;;;;;;;;;;24.44;60.00;99527.41;3171706;28;19930;-70
2023/07/05 00:13:11;;;;;;;;;;;;;;;24.43;59.72;99518.59;3171675;28;19920;-70
2023/07/05 00:14:42;;;;;;;;;;;;;;;24.40;60.30;99520.69;3171504;28;19923;-70
2023/07/05 00:16:13;;;;;;;;;;;;;;;24.37;59.88;99518.38;3168808;28;20019;-70
2023/07/05 00:17:44;;;;;;;;;;;;;;;24.35;60.23;99520.38;3158601;28;19920;-70
2023/07/05 00:19:17;;;;;;;;;;;;;;;24.30;59.97;99524.34;3169645;28;19920;-70
2023/07/05 00:20:47;;;;;;;;;;;;;;;24.28;60.11;99523.69;3166462;28;20600;-69
2023/07/05 00:22:19;;;;;;;;;;;;;;;24.28;60.31;99521.03;3168346;28;19945;-69
2023/07/05 00:23:49;;;;;;;;;;;;;;;24.24;60.09;99519.69;3163318;28;19977;-69
2023/07/05 00:25:21;;;;;;;;;;;;;;;24.23;60.37;99523.34;3171248;28;19920;-69
2023/07/05 00:26:52;;;;;;;;;;;;;;;24.24;60.02;99519.69;3170968;28;20424;-70
2023/07/05 00:28:23;;;;;;;;;;;;;;;24.26;59.91;99527.50;3171371;28;19919;-70
2023/07/05 00:29:54;;;;;;;;;;;;;;;24.22;60.06;99516.34;3170767;28;19919;-70
2023/07/05 00:31:25;;;;;;;;;;;;;;;24.22;59.92;99523.50;3171150;28;20464;-70
2023/07/05 00:32:57;;;;;;;;;;;;;;;24.22;60.25;99518.19;3171218;28;19927;-70
2023/07/05 00:34:29;;;;;;;;;;;;;;;24.23;60.03;99511.88;3171410;28;19926;-70
2023/07/05 00:36:00;;;;;;;;;;;;;;;24.23;60.13;99511.88;3170886;28;19926;-70
2023/07/05 00:37:31;;;;;;;;;;;;;;;24.22;60.21;99504.88;3171161;28;20421;-70
2023/07/05 00:39:03;;;;;;;;;;;;;;;24.21;60.21;99506.72;3170988;28;20019;-70
2023/07/05 00:40:33;;;;;;;;;;;;;;;24.19;60.23;99506.03;3171314;28;19919;-70
2023/07/05 00:42:05;;;;;;;;;;;;;;;24.15;60.79;99496.72;3170782;28;19920;-70
2023/07/05 00:43:35;;;;;;;;;;;;;;;24.12;60.74;99501.56;3171071;28;19926;-70
2023/07/05 00:45:34;;;;;;;;;;;;;;;24.09;61.02;99505.38;3170548;28;20389;-70
2023/07/05 00:47:09;;;;;;;;;;;;;;;24.07;60.66;99508.16;3145893;28;19964;-70
2023/07/05 00:48:42;;;;;;;;;;;;;;;24.05;60.95;99499.53;3146018;28;19993;-70
2023/07/05 00:50:16;;;;;;;;;;;;;;;24.05;60.79;99502.22;3170490;28;20257;-70
2023/07/05 00:51:51;;;;;;;;;;;;;;;24.05;61.11;99498.72;3170754;28;19931;-70
2023/07/05 00:53:22;;;;;;;;;;;;;;;24.00;61.28;99491.22;3171278;28;19924;-70
2023/07/05 00:54:55;;;;;;;;;;;;;;;23.95;61.54;99487.38;3170845;28;19986;-70
2023/07/05 00:56:28;;;;;;;;;;;;;;;23.92;61.77;99493.03;3170830;28;19939;-70
2023/07/05 00:57:59;;;;;;;;;;;;;;;23.89;61.94;99493.34;3170866;28;19923;-69
2023/07/05 00:59:34;;;;;;;;;;;;;;;23.87;62.12;99493.53;3171290;28;19966;-69
2023/07/05 01:01:05;;;;;;;;;;;;;;;23.85;61.81;99490.19;3163782;28;19928;-70
2023/07/05 01:02:39;;;;;;;;;;;;;;;23.85;61.65;99482.22;3166459;28;19926;-70
2023/07/05 01:04:10;;;;;;;;;;;;;;;23.86;61.72;99480.38;3170819;28;19927;-70
2023/07/05 01:05:43;;;;;;;;;;;;;;;23.86;61.81;99481.19;3170946;28;19931;-70
2023/07/05 01:07:14;;;;;;;;;;;;;;;23.87;61.44;99487.34;3170293;28;20025;-70
2023/07/05 01:08:46;;;;;;;;;;;;;;;23.87;61.63;99474.91;3170762;28;19980;-70
2023/07/05 01:10:18;;;;;;;;;;;;;;;23.87;61.49;99479.38;3170876;28;19924;-70
2023/07/05 01:11:53;;;;;;;;;;;;;;;23.87;61.73;99482.03;3170966;28;19920;-70
2023/07/05 01:13:28;;;;;;;;;;;;;;;23.86;61.42;99480.38;3167385;28;19962;-70
2023/07/05 01:15:02;;;;;;;;;;;;;;;23.84;61.70;99476.06;3170452;28;20008;-70
2023/07/05 01:16:52;;;;;;;;;;;;;;;23.86;61.74;99480.38;3165259;28;20604;-70
2023/07/05 01:18:28;;;;;;;;;;;;;;;23.86;61.61;99478.53;3162304;28;19924;-70
2023/07/05 01:20:10;;;;;;;;;;;;;;;23.85;61.59;99482.22;3170485;28;19992;-70
2023/07/05 01:21:48;;;;;;;;;;;;;;;23.87;61.46;99480.22;3170657;28;19968;-69
2023/07/05 01:23:32;;;;;;;;;;;;;;;23.88;61.41;99467.75;3170632;28;20373;-69
2023/07/05 01:25:14;;;;;;;;;;;;;;;23.89;61.25;99472.06;3170201;28;19919;-70
2023/07/05 01:27:03;;;;;;;;;;;;;;;23.88;61.35;99470.41;3170648;28;20385;-70
2023/07/05 01:28:44;;;;;;;;;;;;;;;23.87;61.42;99464.28;3170512;28;19924;-69
2023/07/05 01:30:30;;;;;;;;;;;;;;;23.86;61.38;99462.59;3170214;28;19973;-70
2023/07/05 01:32:09;;;;;;;;;;;;;;;23.87;61.52;99476.72;3170170;28;19927;-70
2023/07/05 01:33:44;;;;;;;;;;;;;;;23.86;61.83;99480.38;3170570;28;19924;-69
2023/07/05 01:35:19;;;;;;;;;;;;;;;23.81;62.38;99465.75;3170527;28;19927;-69
2023/07/05 01:36:50;;;;;;;;;;;;;;;23.78;62.22;99474.06;3170345;28;19920;-70
2023/07/05 01:38:22;;;;;;;;;;;;;;;23.77;62.73;99475.03;3170667;28;20096;-70
2023/07/05 01:39:53;;;;;;;;;;;;;;;23.74;62.61;99466.56;3170319;28;19930;-70
2023/07/05 01:41:24;;;;;;;;;;;;;;;23.73;62.84;99467.56;3170742;28;19919;-70
2023/07/05 01:42:56;;;;;;;;;;;;;;;23.70;62.93;99474.03;3170048;28;19920;-70
2023/07/05 01:44:28;;;;;;;;;;;;;;;23.68;63.23;99468.00;3170429;28;19931;-69
2023/07/05 01:46:08;;;;;;;;;;;;;;;23.70;62.81;99473.19;3170459;28;19920;-71
2023/07/05 01:47:46;;;;;;;;;;;;;;;23.71;62.78;99474.84;3170439;28;19919;-70
2023/07/05 01:49:25;;;;;;;;;;;;;;;23.74;62.91;99478.00;3170703;28;19928;-70
2023/07/05 01:51:01;;;;;;;;;;;;;;;23.77;62.80;99479.53;3170274;28;20064;-71
2023/07/05 01:52:35;;;;;;;;;;;;;;;23.80;62.57;99476.53;3170496;28;19926;-70
2023/07/05 01:54:10;;;;;;;;;;;;;;;23.80;62.25;99480.03;3170353;28;19926;-70
2023/07/05 01:55:43;;;;;;;;;;;;;;;23.81;62.56;99475.53;3170449;28;19973;-70
2023/07/05 01:57:19;;;;;;;;;;;;;;;23.81;62.38;99480.84;3169887;28;19919;-70
2023/07/05 01:58:51;;;;;;;;;;;;;;;23.78;62.76;99478.50;3170327;28;19923;-70
2023/07/05 02:00:25;;;;;;;;;;;;;;;23.77;62.48;99474.19;3169438;28;19966;-70
2023/07/05 02:01:58;;;;;;;;;;;;;;;23.76;63.05;99473.38;3159164;28;20350;-70
2023/07/05 02:03:31;;;;;;;;;;;;;;;23.74;62.84;99471.88;3170742;28;19919;-70
2023/07/05 02:05:03;;;;;;;;;;;;;;;23.76;62.96;99472.56;3170011;28;19927;-70
2023/07/05 02:06:35;;;;;;;;;;;;;;;23.79;62.66;99483.69;3170446;28;19924;-70
2023/07/05 02:08:06;;;;;;;;;;;;;;;23.79;62.85;99482.84;3169916;28;19919;-70
2023/07/05 02:09:37;;;;;;;;;;;;;;;23.80;62.52;99480.03;3163382;28;19982;-70
2023/07/05 02:11:09;;;;;;;;;;;;;;;23.81;62.82;99487.03;3168031;28;19981;-70
2023/07/05 02:12:40;;;;;;;;;;;;;;;23.78;62.61;99482.03;3170225;28;20420;-70
2023/07/05 02:14:11;;;;;;;;;;;;;;;23.78;62.78;99483.84;3166489;28;19935;-70
2023/07/05 02:15:43;;;;;;;;;;;;;;;23.78;62.90;99486.50;3169896;28;19920;-70
2023/07/05 02:17:14;;;;;;;;;;;;;;;23.73;62.92;99489.66;3165828;28;20036;-70
2023/07/05 02:18:47;;;;;;;;;;;;;;;23.63;63.25;99478.28;3170579;28;19933;-70
2023/07/05 02:20:17;;;;;;;;;;;;;;;23.68;63.11;99493.75;3169793;28;19942;-70
2023/07/05 02:21:49;;;;;;;;;;;;;;;23.66;63.23;99491.25;3166275;28;19920;-70
2023/07/05 02:23:21;;;;;;;;;;;;;;;23.67;63.43;99492.94;3161035;28;19919;-70
2023/07/05 02:24:52;;;;;;;;;;;;;;;23.65;63.34;99494.91;3170070;28;19935;-70
2023/07/05 02:26:24;;;;;;;;;;;;;;;23.62;63.63;99500.53;3169820;28;20396;-69
2023/07/05 02:27:55;;;;;;;;;;;;;;;23.60;63.67;99498.06;3170331;28;19984;-70
2023/07/05 02:29:29;;;;;;;;;;;;;;;23.57;63.86;99501.03;3171006;28;19920;-71
2023/07/05 02:31:03;;;;;;;;;;;;;;;23.55;64.03;99507.50;3172563;28;19919;-70
2023/07/05 02:32:34;;;;;;;;;;;;;;;23.49;64.43;99503.66;3172526;28;19926;-70
2023/07/05 02:34:06;;;;;;;;;;;;;;;23.48;64.42;99512.59;3172279;28;19977;-71
2023/07/05 02:35:38;;;;;;;;;;;;;;;23.45;64.12;99506.78;3172889;28;19959;-70
2023/07/05 02:37:10;;;;;;;;;;;;;;;23.44;64.23;99510.44;3172218;28;19920;-70
2023/07/05 02:38:42;;;;;;;;;;;;;;;23.41;64.51;99513.41;3172417;28;19974;-71
2023/07/05 02:40:13;;;;;;;;;;;;;;;23.35;64.46;99507.72;3172334;28;19935;-71
2023/07/05 02:41:44;;;;;;;;;;;;;;;23.31;64.97;99514.38;3172765;28;19919;-71
2023/07/05 02:43:16;;;;;;;;;;;;;;;23.28;64.84;99512.03;3172505;28;19977;-71
2023/07/05 02:44:48;;;;;;;;;;;;;;;23.27;64.86;99507.69;3172564;28;19927;-70
2023/07/05 02:46:19;;;;;;;;;;;;;;;23.27;64.72;99513.00;3172493;28;20577;-71
2023/07/05 02:47:51;;;;;;;;;;;;;;;23.28;64.40;99517.34;3170829;28;19990;-70
2023/07/05 02:49:23;;;;;;;;;;;;;;;23.27;64.77;99523.63;3169076;28;19980;-70
2023/07/05 02:50:54;;;;;;;;;;;;;;;23.26;64.63;99526.47;3172357;28;19923;-71
2023/07/05 02:52:25;;;;;;;;;;;;;;;23.25;64.64;99520.31;3172199;28;19924;-70
2023/07/05 02:53:56;;;;;;;;;;;;;;;23.23;64.53;99516.97;3172354;28;19923;-70
2023/07/05 02:55:28;;;;;;;;;;;;;;;23.24;64.58;99512.50;3172728;28;19924;-70
2023/07/05 02:56:59;;;;;;;;;;;;;;;23.24;64.77;99509.84;3172368;28;19919;-70
2023/07/05 02:58:30;;;;;;;;;;;;;;;23.25;64.81;99507.03;3172493;28;19927;-70
2023/07/05 03:00:02;;;;;;;;;;;;;;;23.25;64.79;99503.50;3172448;28;19924;-71
2023/07/05 03:01:33;;;;;;;;;;;;;;;23.24;64.76;99502.69;3160788;28;19920;-71
2023/07/05 03:03:04;;;;;;;;;;;;;;;23.25;64.47;99500.84;3170125;28;19926;-69
2023/07/05 03:04:38;;;;;;;;;;;;;;;23.25;64.68;99495.53;3172305;28;19930;-69
2023/07/05 03:06:08;;;;;;;;;;;;;;;23.25;64.39;99499.06;3163398;28;19920;-69
2023/07/05 03:07:40;;;;;;;;;;;;;;;23.28;64.31;99500.53;3168222;28;20002;-69
2023/07/05 03:09:10;;;;;;;;;;;;;;;23.30;64.29;99502.06;3170444;28;19919;-69
2023/07/05 03:10:42;;;;;;;;;;;;;;;23.28;64.59;99495.22;3159975;28;20408;-69
2023/07/05 03:12:13;;;;;;;;;;;;;;;23.25;64.28;99488.44;3165435;28;19926;-69
2023/07/05 03:13:44;;;;;;;;;;;;;;;23.27;64.22;99498.88;3172228;28;19919;-71
2023/07/05 03:15:15;;;;;;;;;;;;;;;23.27;64.33;99489.09;3172022;28;19923;-69
2023/07/05 03:16:46;;;;;;;;;;;;;;;23.30;64.52;99488.78;3168125;28;19920;-69
2023/07/05 03:18:17;;;;;;;;;;;;;;;23.24;64.53;99475.28;3172080;28;19924;-70
2023/07/05 03:19:52;;;;;;;;;;;;;;;23.33;64.25;99487.63;3172111;28;20038;-69
2023/07/05 03:21:22;;;;;;;;;;;;;;;23.35;64.10;99483.81;3171871;28;20300;-70
2023/07/05 03:22:54;;;;;;;;;;;;;;;23.36;64.20;99477.50;3172089;28;19923;-69
2023/07/05 03:24:25;;;;;;;;;;;;;;;23.37;64.37;99473.88;3172346;28;19980;-69
2023/07/05 03:25:57;;;;;;;;;;;;;;;23.38;64.45;99475.53;3171512;28;20003;-70
2023/07/05 03:27:29;;;;;;;;;;;;;;;23.39;64.12;99469.22;3172071;28;19920;-70
2023/07/05 03:29:01;;;;;;;;;;;;;;;23.42;64.14;99475.22;3171641;28;20433;-69
2023/07/05 03:30:34;;;;;;;;;;;;;;;23.43;64.22;99476.91;3171915;28;20338;-70
2023/07/05 03:32:07;;;;;;;;;;;;;;;23.43;64.00;99479.56;3172075;28;19923;-70
2023/07/05 03:33:39;;;;;;;;;;;;;;;23.44;64.31;99478.56;3171643;28;19920;-69
2023/07/05 03:35:12;;;;;;;;;;;;;;;23.46;64.30;99477.41;3172075;28;19923;-70
2023/07/05 03:36:43;;;;;;;;;;;;;;;23.48;64.28;99479.88;3171266;28;19919;-70
2023/07/05 03:38:14;;;;;;;;;;;;;;;23.50;64.22;99476.06;3172107;28;19926;-70
2023/07/05 03:39:45;;;;;;;;;;;;;;;23.52;64.07;99475.94;3171451;28;19924;-70
2023/07/05 03:41:18;;;;;;;;;;;;;;;23.51;64.15;99467.09;3171640;28;20392;-70
2023/07/05 03:42:49;;;;;;;;;;;;;;;23.51;64.31;99471.59;3171802;28;19919;-70
2023/07/05 03:44:22;;;;;;;;;;;;;;;23.51;64.45;99474.25;3172159;28;19979;-70
2023/07/05 03:45:52;;;;;;;;;;;;;;;23.50;64.58;99473.41;3171892;28;19931;-70
2023/07/05 03:47:24;;;;;;;;;;;;;;;23.49;64.69;99482.41;3171415;28;20319;-71
2023/07/05 03:48:54;;;;;;;;;;;;;;;23.48;64.46;99480.72;3171779;28;20384;-71
2023/07/05 03:50:27;;;;;;;;;;;;;;;23.47;64.88;99481.72;3171783;28;19930;-70
2023/07/05 03:51:59;;;;;;;;;;;;;;;23.47;64.66;99478.22;3171180;28;19927;-69
2023/07/05 03:53:29;;;;;;;;;;;;;;;23.48;64.65;99488.69;3166462;28;19924;-70
2023/07/05 03:55:01;;;;;;;;;;;;;;;23.47;64.57;99476.41;3166152;28;19961;-69
2023/07/05 03:56:33;;;;;;;;;;;;;;;23.54;64.82;99484.56;3166770;28;19934;-69
2023/07/05 03:58:04;;;;;;;;;;;;;;;23.56;64.67;99493.22;3166440;28;20063;-69
2023/07/05 03:59:36;;;;;;;;;;;;;;;23.59;64.61;99488.41;3166009;28;20172;-70
2023/07/05 04:01:08;;;;;;;;;;;;;;;23.61;64.11;99493.56;3159353;28;19931;-71
2023/07/05 04:02:40;;;;;;;;;;;;;;;23.63;64.19;99494.22;3162150;28;20312;-70
2023/07/05 04:04:11;;;;;;;;;;;;;;;23.66;64.09;99495.72;3166362;28;19931;-70
2023/07/05 04:05:43;;;;;;;;;;;;;;;23.70;63.90;99489.16;3160534;28;19928;-70
2023/07/05 04:07:15;;;;;;;;;;;;;;;23.71;64.15;99496.13;3158945;28;20030;-70
2023/07/05 04:08:46;;;;;;;;;;;;;;;23.69;64.23;99484.78;3166085;28;19984;-70
2023/07/05 04:10:17;;;;;;;;;;;;;;;23.76;63.86;99488.50;3166352;28;20639;-70
2023/07/05 04:11:48;;;;;;;;;;;;;;;23.79;63.89;99491.66;3165946;28;19930;-70
2023/07/05 04:13:19;;;;;;;;;;;;;;;23.83;63.62;99500.97;3166215;28;19923;-71
2023/07/05 04:14:51;;;;;;;;;;;;;;;23.87;63.48;99495.31;3163556;28;19943;-70
2023/07/05 04:16:24;;;;;;;;;;;;;;;23.90;63.56;99492.34;3162021;28;19924;-70
2023/07/05 04:17:54;;;;;;;;;;;;;;;23.91;63.37;99491.38;3141103;28;19931;-70
2023/07/05 04:19:26;;;;;;;;;;;;;;;23.94;63.53;99493.69;3165081;28;20412;-68
2023/07/05 04:20:59;;;;;;;;;;;;;;;23.97;63.55;99504.00;3165961;28;19927;-69
2023/07/05 04:22:31;;;;;;;;;;;;;;;23.99;63.56;99494.88;3166052;28;20002;-69
2023/07/05 04:24:03;;;;;;;;;;;;;;;24.04;63.09;99502.34;3166279;28;19992;-69
2023/07/05 04:25:33;;;;;;;;;;;;;;;24.07;63.29;99499.38;3165773;28;19931;-69
2023/07/05 04:27:05;;;;;;;;;;;;;;;24.10;63.26;99490.22;3165579;28;20389;-69
2023/07/05 04:28:36;;;;;;;;;;;;;;;24.11;62.93;99503.38;3166487;28;19981;-69
2023/07/05 04:30:08;;;;;;;;;;;;;;;24.14;63.10;99488.94;3166387;28;20042;-69
2023/07/05 04:31:39;;;;;;;;;;;;;;;24.15;63.20;99495.91;3165699;28;20070;-71
2023/07/05 04:33:10;;;;;;;;;;;;;;;24.16;62.93;99489.56;3165752;28;20084;-69
2023/07/05 04:34:42;;;;;;;;;;;;;;;24.18;63.19;99492.91;3165924;28;19988;-69
2023/07/05 04:36:14;;;;;;;;;;;;;;;24.22;62.93;99494.22;3165987;28;19977;-68
2023/07/05 04:37:46;;;;;;;;;;;;;;;24.22;63.07;99495.06;3165975;28;19938;-69
2023/07/05 04:39:18;;;;;;;;;;;;;;;24.22;63.13;99489.75;3156340;28;19923;-69
2023/07/05 04:40:48;;;;;;;;;;;;;;;24.22;63.11;99495.06;3165919;28;19982;-69
2023/07/05 04:42:20;;;;;;;;;;;;;;;24.24;63.27;99486.94;3165553;28;20451;-69
2023/07/05 04:43:52;;;;;;;;;;;;;;;24.26;62.89;99487.59;3166234;28;20366;-69
2023/07/05 04:45:23;;;;;;;;;;;;;;;24.26;63.00;99485.78;3165736;28;19927;-69
2023/07/05 04:46:55;;;;;;;;;;;;;;;24.29;62.84;99481.94;3166008;28;19924;-70
2023/07/05 04:48:26;;;;;;;;;;;;;;;24.29;62.99;99496.09;3165817;28;19946;-69
2023/07/05 04:49:58;;;;;;;;;;;;;;;24.28;63.44;99496.22;3165721;28;19923;-69
2023/07/05 04:51:31;;;;;;;;;;;;;;;24.26;63.24;99483.09;3165744;28;20369;-69
2023/07/05 04:53:02;;;;;;;;;;;;;;;24.28;63.22;99488.25;3165383;28;19935;-69
2023/07/05 04:54:34;;;;;;;;;;;;;;;24.34;62.98;99484.94;3165856;28;19924;-70
2023/07/05 04:56:05;;;;;;;;;;;;;;;24.39;63.01;99484.44;3165626;28;20009;-69
2023/07/05 04:57:37;;;;;;;;;;;;;;;24.43;62.94;99489.31;3165247;28;20048;-69
2023/07/05 04:59:10;;;;;;;;;;;;;;;24.45;63.12;99478.47;3158285;28;19930;-69
2023/07/05 05:00:41;;;;;;;;;;;;;;;24.46;62.92;99491.66;3161923;28;19924;-69
2023/07/05 05:02:16;;;;;;;;;;;;;;;24.46;63.11;99485.47;3157085;28;19928;-69
2023/07/05 05:03:47;;;;;;;;;;;;;;;24.48;63.33;99483.47;3165383;28;19928;-70
2023/07/05 05:05:18;;;;;;;;;;;;;;;24.50;62.94;99481.50;3165877;28;19923;-69
2023/07/05 05:06:51;;;;;;;;;;;;;;;24.54;63.23;99472.16;3165421;28;19934;-70
2023/07/05 05:08:22;;;;;;;;;;;;;;;24.58;62.61;99481.50;3165419;28;19924;-70
2023/07/05 05:09:54;;;;;;;;;;;;;;;24.62;62.97;99481.97;3165656;28;19924;-70
2023/07/05 05:11:26;;;;;;;;;;;;;;;24.67;62.63;99472.50;3165905;28;20555;-69
2023/07/05 05:12:58;;;;;;;;;;;;;;;24.73;62.24;99471.81;3165914;28;20472;-69
2023/07/05 05:14:28;;;;;;;;;;;;;;;24.78;62.28;99478.47;3164981;28;20045;-69
2023/07/05 05:16:01;;;;;;;;;;;;;;;24.82;62.42;99474.47;3164619;28;19943;-69
2023/07/05 05:17:32;;;;;;;;;;;;;;;24.75;62.00;99458.31;3152315;28;20038;-69
2023/07/05 05:19:04;;;;;;;;;;;;;;;24.94;62.20;99473.13;3162742;28;19962;-70
2023/07/05 05:20:37;;;;;;;;;;;;;;;25.00;61.61;99471.63;3165058;28;20004;-69
2023/07/05 05:22:11;;;;;;;;;;;;;;;25.07;61.88;99476.06;3165602;28;19923;-69
2023/07/05 05:23:42;;;;;;;;;;;;;;;25.15;61.83;99481.41;3165347;28;20095;-69
2023/07/05 05:25:13;;;;;;;;;;;;;;;25.22;61.28;99478.06;3164874;28;19942;-69
2023/07/05 05:26:45;;;;;;;;;;;;;;;25.28;61.14;99475.53;3165248;28;20164;-69
2023/07/05 05:28:17;;;;;;;;;;;;;;;25.37;61.40;99471.84;3165161;28;19927;-69
2023/07/05 05:29:48;;;;;;;;;;;;;;;25.43;60.82;99473.81;3165391;28;20332;-70
2023/07/05 05:31:20;;;;;;;;;;;;;;;25.50;61.06;99471.31;3164930;28;20014;-69
2023/07/05 05:32:52;;;;;;;;;;;;;;;25.54;60.69;99467.28;3165416;28;19934;-69
2023/07/05 05:34:25;;;;;;;;;;;;;;;25.59;60.70;99480.09;3165674;28;19923;-69
2023/07/05 05:35:57;;;;;;;;;;;;;;;25.62;60.53;99475.25;3165607;28;19977;-69
2023/07/05 05:37:30;;;;;;;;;;;;;;;25.69;60.60;99479.88;3165869;28;20001;-69
2023/07/05 05:39:02;;;;;;;;;;;;;;;25.73;60.23;99473.19;3165899;28;19928;-69
2023/07/05 05:40:33;;;;;;;;;;;;;;;25.74;60.41;99470.34;3165956;28;19923;-70
2023/07/05 05:42:05;;;;;;;;;;;;;;;25.74;60.58;99473.00;3165720;28;20405;-69
2023/07/05 05:43:36;;;;;;;;;;;;;;;25.74;60.11;99467.69;3165284;28;19977;-69
2023/07/05 05:45:08;;;;;;;;;;;;;;;25.72;60.48;99467.00;3165324;28;20026;-69
2023/07/05 05:46:39;;;;;;;;;;;;;;;25.74;60.46;99464.19;3165195;28;19996;-69
2023/07/05 05:48:10;;;;;;;;;;;;;;;25.76;60.10;99470.16;3165168;28;19924;-70
2023/07/05 05:49:42;;;;;;;;;;;;;;;25.82;60.03;99472.16;3165311;28;20069;-69
2023/07/05 05:51:14;;;;;;;;;;;;;;;25.86;60.16;99468.16;3160824;28;19938;-69
2023/07/05 05:52:46;;;;;;;;;;;;;;;25.91;60.24;99467.59;3158903;28;20000;-69
2023/07/05 05:54:17;;;;;;;;;;;;;;;25.94;60.09;99472.59;3161107;28;19986;-69
2023/07/05 05:55:48;;;;;;;;;;;;;;;25.97;59.60;99475.75;3157558;28;20388;-69
2023/07/05 05:57:20;;;;;;;;;;;;;;;26.01;59.90;99476.22;3165139;28;20011;-70
2023/07/05 05:58:51;;;;;;;;;;;;;;;26.04;59.63;99475.88;3163542;28;19977;-70
2023/07/05 06:00:22;;;;;;;;;;;;;;;26.06;59.34;99469.34;3164091;28;19928;-69
2023/07/05 06:01:54;;;;;;;;;;;;;;;26.10;59.49;99465.31;3154467;28;19923;-70
2023/07/05 06:03:25;;;;;;;;;;;;;;;26.16;59.39;99466.44;3165214;28;20018;-70
2023/07/05 06:04:57;;;;;;;;;;;;;;;26.20;58.93;99464.25;3167615;28;19980;-69
2023/07/05 06:06:28;;;;;;;;;;;;;;;26.22;59.07;99473.72;3167741;28;19984;-70
2023/07/05 06:08:01;;;;;;;;;;;;;;;26.26;58.91;99469.69;3156405;28;19934;-70
2023/07/05 06:09:37;;;;;;;;;;;;;;;26.29;58.54;99469.31;3166483;28;19977;-70
2023/07/05 06:11:09;;;;;;;;;;;;;;;26.31;58.62;99472.66;3167374;28;20332;-70
2023/07/05 06:12:41;;;;;;;;;;;;;;;26.30;58.31;99470.19;3167684;28;20159;-70
2023/07/05 06:14:13;;;;;;;;;;;;;;;26.31;58.37;99464.66;3167947;28;19923;-70
2023/07/05 06:15:44;;;;;;;;;;;;;;;26.38;58.44;99463.94;3167495;28;19923;-69
2023/07/05 06:17:16;;;;;;;;;;;;;;;26.43;58.44;99464.22;3155741;28;20430;-69
2023/07/05 06:18:48;;;;;;;;;;;;;;;26.47;58.05;99461.03;3162487;28;19923;-70
2023/07/05 06:20:18;;;;;;;;;;;;;;;26.53;58.04;99459.50;3167846;28;19946;-70
2023/07/05 06:21:50;;;;;;;;;;;;;;;26.60;57.86;99463.13;3167218;28;19924;-70
2023/07/05 06:23:22;;;;;;;;;;;;;;;26.70;57.94;99460.19;3167459;28;19981;-70
2023/07/05 06:24:54;;;;;;;;;;;;;;;26.74;57.77;99462.31;3167437;28;19924;-70
2023/07/05 06:26:25;;;;;;;;;;;;;;;26.76;57.42;99459.44;3167710;28;19930;-69
2023/07/05 06:27:56;;;;;;;;;;;;;;;26.81;57.65;99465.09;3167515;28;19930;-69
2023/07/05 06:29:28;;;;;;;;;;;;;;;26.88;57.32;99457.16;3167633;28;19967;-69
2023/07/05 06:31:03;;;;;;;;;;;;;;;26.95;57.49;99452.75;3166948;28;19934;-69
2023/07/05 06:32:35;;;;;;;;;;;;;;;27.02;57.04;99459.00;3167204;28;19927;-69
2023/07/05 06:34:07;;;;;;;;;;;;;;;27.05;57.07;99458.66;3167270;28;19959;-69
2023/07/05 06:35:38;;;;;;;;;;;;;;;27.11;57.16;99451.75;3167361;28;19923;-71
2023/07/05 06:37:10;;;;;;;;;;;;;;;27.19;56.66;99454.34;3167056;28;19923;-71
2023/07/05 06:38:44;;;;;;;;;;;;;;;27.26;56.40;99454.44;3166837;28;20735;-71
2023/07/05 06:40:14;;;;;;;;;;;;;;;27.32;56.21;99448.34;3167000;28;20438;-71
2023/07/05 06:41:46;;;;;;;;;;;;;;;27.38;56.19;99452.94;3166987;28;19927;-71
2023/07/05 06:43:16;;;;;;;;;;;;;;;27.43;56.13;99451.38;3167372;28;20429;-71
2023/07/05 06:44:48;;;;;;;;;;;;;;;27.55;55.91;99450.91;3166767;28;19924;-71
2023/07/05 06:46:20;;;;;;;;;;;;;;;27.64;55.65;99449.78;3167217;28;19929;-70
2023/07/05 06:47:51;;;;;;;;;;;;;;;27.71;55.69;99447.16;3167345;28;19927;-71
2023/07/05 06:49:24;;;;;;;;;;;;;;;27.77;55.27;99449.06;3166819;28;20324;-71
2023/07/05 06:50:58;;;;;;;;;;;;;;;27.83;55.51;99449.22;3164672;28;20253;-71
2023/07/05 06:52:30;;;;;;;;;;;;;;;27.92;55.08;99449.06;3166906;28;20110;-71
2023/07/05 06:54:03;;;;;;;;;;;;;;;27.98;54.73;99454.50;3166864;28;20024;-71
2023/07/05 06:55:33;;;;;;;;;;;;;;;28.02;54.76;99450.41;3154658;28;19924;-71
2023/07/05 06:57:05;;;;;;;;;;;;;;;28.02;54.82;99455.78;3159595;28;19987;-70
2023/07/05 06:58:37;;;;;;;;;;;;;;;27.99;54.54;99450.81;3166906;28;19981;-71
2023/07/05 07:00:09;;;;;;;;;;;;;;;28.01;54.30;99451.44;3167359;28;20433;-71
2023/07/05 07:01:42;;;;;;;;;;;;;;;28.05;54.75;99457.25;3155094;28;20281;-71
2023/07/05 07:03:14;;;;;;;;;;;;;;;28.10;54.38;99446.78;3166894;28;19924;-71
2023/07/05 07:04:44;;;;;;;;;;;;;;;28.14;54.46;99456.09;3167101;28;20517;-71
2023/07/05 07:06:16;;;;;;;;;;;;;;;28.17;54.13;99457.56;3166972;28;20049;-71
2023/07/05 07:07:47;;;;;;;;;;;;;;;28.19;54.04;99452.81;3167060;28;20435;-71
2023/07/05 07:09:20;;;;;;;;;;;;;;;28.26;54.12;99457.22;3166824;28;19946;-71
2023/07/05 07:10:51;;;;;;;;;;;;;;;28.33;53.81;99451.94;3167091;28;20728;-70
2023/07/05 07:12:23;;;;;;;;;;;;;;;28.45;53.66;99457.63;3166926;28;19967;-71
2023/07/05 07:13:54;;;;;;;;;;;;;;;28.57;53.66;99456.06;3166965;28;19923;-72
2023/07/05 07:15:25;;;;;;;;;;;;;;;28.66;53.59;99451.41;3166169;28;19977;-71
2023/07/05 07:16:56;;;;;;;;;;;;;;;28.74;53.29;99451.25;3163126;28;19924;-72
2023/07/05 07:18:27;;;;;;;;;;;;;;;28.80;53.11;99443.25;3166790;28;20460;-71
2023/07/05 07:19:59;;;;;;;;;;;;;;;28.89;52.79;99440.44;3166859;28;19976;-71
2023/07/05 07:21:30;;;;;;;;;;;;;;;28.99;52.32;99443.59;3166953;28;19931;-70
2023/07/05 07:23:02;;;;;;;;;;;;;;;29.09;52.21;99446.78;3166843;28;19965;-70
2023/07/05 07:24:35;;;;;;;;;;;;;;;29.17;52.39;99440.44;3166379;28;20392;-71
2023/07/05 07:26:06;;;;;;;;;;;;;;;29.29;52.00;99446.06;3166902;28;20324;-69
2023/07/05 07:27:38;;;;;;;;;;;;;;;29.35;51.99;99443.41;3141934;28;19924;-70
2023/07/05 07:29:10;;;;;;;;;;;;;;;29.36;51.85;99442.34;3165992;28;19924;-70
2023/07/05 07:30:41;;;;;;;;;;;;;;;29.46;51.74;99439.28;3166556;28;20010;-70
2023/07/05 07:32:13;;;;;;;;;;;;;;;29.55;51.40;99440.81;3166330;28;19931;-70
2023/07/05 07:33:44;;;;;;;;;;;;;;;29.62;51.46;99447.03;3166747;28;19931;-71
2023/07/05 07:35:16;;;;;;;;;;;;;;;29.66;51.18;99447.44;3166795;28;19923;-70
2023/07/05 07:36:48;;;;;;;;;;;;;;;29.74;51.14;99441.09;3166592;28;19923;-70
2023/07/05 07:38:18;;;;;;;;;;;;;;;29.86;51.03;99440.28;3166190;28;19927;-71
2023/07/05 07:39:51;;;;;;;;;;;;;;;29.97;50.76;99444.25;3166569;28;20400;-70
2023/07/05 07:41:24;;;;;;;;;;;;;;;30.01;50.41;99437.41;3166427;28;20106;-70
2023/07/05 07:42:56;;;;;;;;;;;;;;;30.03;50.67;99437.22;3166850;28;19966;-70
2023/07/05 07:44:28;;;;;;;;;;;;;;;30.10;50.46;99440.75;3166494;28;19927;-70
2023/07/05 07:45:59;;;;;;;;;;;;;;;30.21;50.17;99439.34;3166779;28;19996;-70
2023/07/05 07:47:30;;;;;;;;;;;;;;;30.24;49.91;99437.06;3159396;28;19927;-70
2023/07/05 07:49:01;;;;;;;;;;;;;;;30.24;50.04;99445.13;3166643;28;19924;-70
2023/07/05 07:50:33;;;;;;;;;;;;;;;30.27;49.75;99436.66;3165048;28;19946;-70
2023/07/05 07:52:07;;;;;;;;;;;;;;;30.26;49.67;99434.16;3166585;28;19954;-71
2023/07/05 07:53:37;;;;;;;;;;;;;;;30.26;49.96;99432.34;3166831;28;19992;-71
2023/07/05 07:55:10;;;;;;;;;;;;;;;30.34;49.65;99450.09;3166560;28;20026;-71
2023/07/05 07:56:42;;;;;;;;;;;;;;;30.34;49.55;99445.53;3166703;28;20440;-70
2023/07/05 07:58:14;;;;;;;;;;;;;;;30.29;49.18;99441.81;3165895;28;20319;-71
2023/07/05 07:59:46;;;;;;;;;;;;;;;30.32;49.39;99441.44;3166688;28;19973;-70
2023/07/05 08:01:17;;;;;;;;;;;;;;;30.35;49.38;99441.00;3157219;28;20008;-71